sensor_id;sensor_type;location;lat;lon;timestamp;P1;durP1;ratioP1;P2;durP2;ratioP2
44816;SDS011;30529;53.570;9.964;2023-03-19T00:01:08;5.97;;;4.90;;
44816;SDS011;30529;53.570;9.964;2023-03-19T00:03:34;8.50;;;5.70;;
44816;SDS011;30529;53.570;9.964;2023-03-19T00:06:06;8.80;;;4.73;;
44816;SDS011;30529;53.570;9.964;2023-03-19T00:08:35;13.00;;;5.43;;
44816;SDS011;30529;53.570;9.964;2023-03-19T00:11:06;5.77;;;4.67;;
44816;SDS011;30529;53.570;9.964;2023-03-19T00:13:36;6.30;;;4.63;;
44816;SDS011;30529;53.570;9.964;2023-03-19T00:16:06;5.83;;;4.20;;
44816;SDS011;30529;53.570;9.964;2023-03-19T00:18:32;7.37;;;5.27;;
44816;SDS011;30529;53.570;9.964;2023-03-19T00:21:00;7.33;;;5.20;;
44816;SDS011;30529;53.570;9.964;2023-03-19T00:23:35;6.50;;;4.70;;
44816;SDS011;30529;53.570;9.964;2023-03-19T00:26:04;6.73;;;4.37;;
44816;SDS011;30529;53.570;9.964;2023-03-19T00:28:33;5.77;;;4.53;;
44816;SDS011;30529;53.570;9.964;2023-03-19T00:31:08;5.50;;;3.87;;
44816;SDS011;30529;53.570;9.964;2023-03-19T00:33:36;6.00;;;4.07;;
44816;SDS011;30529;53.570;9.964;2023-03-19T00:36:02;5.07;;;3.50;;
44816;SDS011;30529;53.570;9.964;2023-03-19T00:38:28;7.17;;;3.97;;
44816;SDS011;30529;53.570;9.964;2023-03-19T00:40:54;5.73;;;3.80;;
44816;SDS011;30529;53.570;9.964;2023-03-19T00:43:20;5.77;;;3.67;;
44816;SDS011;30529;53.570;9.964;2023-03-19T00:45:49;7.03;;;3.53;;
44816;SDS011;30529;53.570;9.964;2023-03-19T00:48:16;4.40;;;3.17;;
44816;SDS011;30529;53.570;9.964;2023-03-19T00:50:42;4.50;;;3.23;;
44816;SDS011;30529;53.570;9.964;2023-03-19T00:53:08;5.00;;;3.20;;
44816;SDS011;30529;53.570;9.964;2023-03-19T00:55:34;4.40;;;2.80;;
44816;SDS011;30529;53.570;9.964;2023-03-19T00:58:00;5.57;;;3.30;;
44816;SDS011;30529;53.570;9.964;2023-03-19T01:00:27;4.73;;;2.63;;
44816;SDS011;30529;53.570;9.964;2023-03-19T01:02:53;6.10;;;3.20;;
44816;SDS011;30529;53.570;9.964;2023-03-19T01:05:19;4.70;;;3.00;;
44816;SDS011;30529;53.570;9.964;2023-03-19T01:07:45;2.90;;;2.30;;
44816;SDS011;30529;53.570;9.964;2023-03-19T01:10:11;4.70;;;3.30;;
44816;SDS011;30529;53.570;9.964;2023-03-19T01:12:36;3.83;;;2.90;;
44816;SDS011;30529;53.570;9.964;2023-03-19T01:15:03;4.10;;;2.67;;
44816;SDS011;30529;53.570;9.964;2023-03-19T01:17:31;3.87;;;2.80;;
44816;SDS011;30529;53.570;9.964;2023-03-19T01:19:57;4.80;;;3.30;;
44816;SDS011;30529;53.570;9.964;2023-03-19T01:22:23;3.83;;;2.50;;
44816;SDS011;30529;53.570;9.964;2023-03-19T01:24:49;5.40;;;3.37;;
44816;SDS011;30529;53.570;9.964;2023-03-19T01:27:15;6.53;;;3.67;;
44816;SDS011;30529;53.570;9.964;2023-03-19T01:29:41;6.47;;;3.37;;
44816;SDS011;30529;53.570;9.964;2023-03-19T01:32:06;5.87;;;3.77;;
44816;SDS011;30529;53.570;9.964;2023-03-19T01:34:32;5.33;;;3.30;;
44816;SDS011;30529;53.570;9.964;2023-03-19T01:36:58;6.27;;;3.20;;
44816;SDS011;30529;53.570;9.964;2023-03-19T01:39:24;5.37;;;2.90;;
44816;SDS011;30529;53.570;9.964;2023-03-19T01:41:50;4.90;;;2.97;;
44816;SDS011;30529;53.570;9.964;2023-03-19T01:44:27;4.17;;;2.70;;
44816;SDS011;30529;53.570;9.964;2023-03-19T01:46:56;5.07;;;2.57;;
44816;SDS011;30529;53.570;9.964;2023-03-19T01:49:25;4.83;;;2.93;;
44816;SDS011;30529;53.570;9.964;2023-03-19T01:51:53;3.50;;;2.57;;
44816;SDS011;30529;53.570;9.964;2023-03-19T01:54:21;7.10;;;4.73;;
44816;SDS011;30529;53.570;9.964;2023-03-19T01:56:54;12.60;;;8.13;;
44816;SDS011;30529;53.570;9.964;2023-03-19T01:59:34;3.80;;;3.10;;
44816;SDS011;30529;53.570;9.964;2023-03-19T02:02:03;2.90;;;2.30;;
44816;SDS011;30529;53.570;9.964;2023-03-19T02:04:34;5.90;;;2.77;;
44816;SDS011;30529;53.570;9.964;2023-03-19T02:07:02;4.57;;;2.77;;
44816;SDS011;30529;53.570;9.964;2023-03-19T02:09:29;4.03;;;2.80;;
44816;SDS011;30529;53.570;9.964;2023-03-19T02:11:56;7.60;;;3.00;;
44816;SDS011;30529;53.570;9.964;2023-03-19T02:14:23;5.53;;;2.80;;
44816;SDS011;30529;53.570;9.964;2023-03-19T02:16:49;3.67;;;2.80;;
44816;SDS011;30529;53.570;9.964;2023-03-19T02:19:16;4.33;;;2.63;;
44816;SDS011;30529;53.570;9.964;2023-03-19T02:21:47;4.50;;;2.73;;
44816;SDS011;30529;53.570;9.964;2023-03-19T02:24:15;4.90;;;2.93;;
44816;SDS011;30529;53.570;9.964;2023-03-19T02:26:50;4.73;;;3.30;;
44816;SDS011;30529;53.570;9.964;2023-03-19T02:29:16;6.17;;;3.33;;
44816;SDS011;30529;53.570;9.964;2023-03-19T02:31:42;6.47;;;3.30;;
44816;SDS011;30529;53.570;9.964;2023-03-19T02:36:36;4.77;;;2.97;;
44816;SDS011;30529;53.570;9.964;2023-03-19T02:39:06;5.40;;;2.80;;
44816;SDS011;30529;53.570;9.964;2023-03-19T02:41:39;3.47;;;3.00;;
44816;SDS011;30529;53.570;9.964;2023-03-19T02:44:07;3.40;;;2.50;;
44816;SDS011;30529;53.570;9.964;2023-03-19T02:46:36;4.07;;;2.80;;
44816;SDS011;30529;53.570;9.964;2023-03-19T02:49:02;4.20;;;3.10;;
44816;SDS011;30529;53.570;9.964;2023-03-19T02:51:28;5.27;;;2.63;;
44816;SDS011;30529;53.570;9.964;2023-03-19T02:53:55;2.80;;;2.07;;
44816;SDS011;30529;53.570;9.964;2023-03-19T02:56:21;3.47;;;2.90;;
44816;SDS011;30529;53.570;9.964;2023-03-19T02:58:46;5.27;;;2.80;;
44816;SDS011;30529;53.570;9.964;2023-03-19T03:01:15;6.10;;;2.70;;
44816;SDS011;30529;53.570;9.964;2023-03-19T03:03:42;3.87;;;2.53;;
44816;SDS011;30529;53.570;9.964;2023-03-19T03:06:10;6.40;;;2.90;;
44816;SDS011;30529;53.570;9.964;2023-03-19T03:08:39;5.03;;;3.00;;
44816;SDS011;30529;53.570;9.964;2023-03-19T03:11:07;4.67;;;2.57;;
44816;SDS011;30529;53.570;9.964;2023-03-19T03:13:35;4.63;;;2.60;;
44816;SDS011;30529;53.570;9.964;2023-03-19T03:16:02;4.63;;;2.90;;
44816;SDS011;30529;53.570;9.964;2023-03-19T03:18:28;3.80;;;2.33;;
44816;SDS011;30529;53.570;9.964;2023-03-19T03:20:54;4.50;;;2.33;;
44816;SDS011;30529;53.570;9.964;2023-03-19T03:23:23;4.00;;;2.13;;
44816;SDS011;30529;53.570;9.964;2023-03-19T03:25:49;4.93;;;2.33;;
44816;SDS011;30529;53.570;9.964;2023-03-19T03:28:16;4.67;;;2.30;;
44816;SDS011;30529;53.570;9.964;2023-03-19T03:30:43;3.43;;;2.40;;
44816;SDS011;30529;53.570;9.964;2023-03-19T03:33:10;4.20;;;2.30;;
44816;SDS011;30529;53.570;9.964;2023-03-19T03:35:36;3.60;;;2.50;;
44816;SDS011;30529;53.570;9.964;2023-03-19T03:38:02;3.67;;;2.43;;
44816;SDS011;30529;53.570;9.964;2023-03-19T03:40:29;3.00;;;2.20;;
44816;SDS011;30529;53.570;9.964;2023-03-19T03:42:55;3.03;;;2.13;;
44816;SDS011;30529;53.570;9.964;2023-03-19T03:45:24;3.37;;;1.93;;
44816;SDS011;30529;53.570;9.964;2023-03-19T03:47:50;3.03;;;2.27;;
44816;SDS011;30529;53.570;9.964;2023-03-19T03:50:16;2.17;;;1.80;;
44816;SDS011;30529;53.570;9.964;2023-03-19T03:52:50;2.73;;;1.97;;
44816;SDS011;30529;53.570;9.964;2023-03-19T03:55:16;3.37;;;1.93;;
44816;SDS011;30529;53.570;9.964;2023-03-19T03:57:42;4.10;;;2.20;;
44816;SDS011;30529;53.570;9.964;2023-03-19T04:00:11;2.50;;;2.20;;
44816;SDS011;30529;53.570;9.964;2023-03-19T04:02:37;4.37;;;2.97;;
44816;SDS011;30529;53.570;9.964;2023-03-19T04:05:04;3.23;;;2.40;;
44816;SDS011;30529;53.570;9.964;2023-03-19T04:07:33;3.07;;;2.03;;
44816;SDS011;30529;53.570;9.964;2023-03-19T04:10:06;3.90;;;2.23;;
44816;SDS011;30529;53.570;9.964;2023-03-19T04:12:34;4.00;;;2.23;;
44816;SDS011;30529;53.570;9.964;2023-03-19T04:15:02;3.03;;;1.80;;
44816;SDS011;30529;53.570;9.964;2023-03-19T04:17:33;2.83;;;2.27;;
44816;SDS011;30529;53.570;9.964;2023-03-19T04:20:00;2.60;;;2.10;;
44816;SDS011;30529;53.570;9.964;2023-03-19T04:22:27;3.90;;;2.43;;
44816;SDS011;30529;53.570;9.964;2023-03-19T04:24:53;3.03;;;2.13;;
44816;SDS011;30529;53.570;9.964;2023-03-19T04:27:19;2.80;;;2.17;;
44816;SDS011;30529;53.570;9.964;2023-03-19T04:29:48;5.37;;;2.43;;
44816;SDS011;30529;53.570;9.964;2023-03-19T04:32:17;3.10;;;2.30;;
44816;SDS011;30529;53.570;9.964;2023-03-19T04:34:43;4.70;;;2.50;;
44816;SDS011;30529;53.570;9.964;2023-03-19T04:37:09;2.50;;;2.10;;
44816;SDS011;30529;53.570;9.964;2023-03-19T04:39:35;4.57;;;2.27;;
44816;SDS011;30529;53.570;9.964;2023-03-19T04:42:01;3.00;;;2.30;;
44816;SDS011;30529;53.570;9.964;2023-03-19T04:44:29;2.67;;;2.13;;
44816;SDS011;30529;53.570;9.964;2023-03-19T04:46:56;2.50;;;2.30;;
44816;SDS011;30529;53.570;9.964;2023-03-19T04:49:22;2.73;;;2.07;;
44816;SDS011;30529;53.570;9.964;2023-03-19T04:51:50;4.30;;;2.40;;
44816;SDS011;30529;53.570;9.964;2023-03-19T04:54:19;3.50;;;2.30;;
44816;SDS011;30529;53.570;9.964;2023-03-19T04:56:45;5.37;;;3.30;;
44816;SDS011;30529;53.570;9.964;2023-03-19T04:59:11;3.33;;;2.30;;
44816;SDS011;30529;53.570;9.964;2023-03-19T05:01:37;3.20;;;2.40;;
44816;SDS011;30529;53.570;9.964;2023-03-19T05:04:03;4.63;;;3.03;;
44816;SDS011;30529;53.570;9.964;2023-03-19T05:06:29;3.70;;;2.57;;
44816;SDS011;30529;53.570;9.964;2023-03-19T05:08:56;3.80;;;2.80;;
44816;SDS011;30529;53.570;9.964;2023-03-19T05:11:22;4.07;;;2.73;;
44816;SDS011;30529;53.570;9.964;2023-03-19T05:13:48;3.87;;;2.33;;
44816;SDS011;30529;53.570;9.964;2023-03-19T05:16:14;7.00;;;2.70;;
44816;SDS011;30529;53.570;9.964;2023-03-19T05:18:40;2.60;;;2.30;;
44816;SDS011;30529;53.570;9.964;2023-03-19T05:21:11;2.90;;;2.30;;
44816;SDS011;30529;53.570;9.964;2023-03-19T05:23:37;4.97;;;2.90;;
44816;SDS011;30529;53.570;9.964;2023-03-19T05:26:04;4.20;;;2.67;;
44816;SDS011;30529;53.570;9.964;2023-03-19T05:28:34;3.10;;;2.60;;
44816;SDS011;30529;53.570;9.964;2023-03-19T05:31:00;5.47;;;3.20;;
44816;SDS011;30529;53.570;9.964;2023-03-19T05:33:28;4.70;;;3.10;;
44816;SDS011;30529;53.570;9.964;2023-03-19T05:35:56;3.83;;;2.60;;
44816;SDS011;30529;53.570;9.964;2023-03-19T05:38:22;3.13;;;2.80;;
44816;SDS011;30529;53.570;9.964;2023-03-19T05:40:48;4.10;;;2.80;;
44816;SDS011;30529;53.570;9.964;2023-03-19T05:43:14;3.03;;;2.73;;
44816;SDS011;30529;53.570;9.964;2023-03-19T05:45:41;3.97;;;2.63;;
44816;SDS011;30529;53.570;9.964;2023-03-19T05:48:07;4.33;;;3.03;;
44816;SDS011;30529;53.570;9.964;2023-03-19T05:50:34;5.73;;;2.80;;
44816;SDS011;30529;53.570;9.964;2023-03-19T05:53:00;4.10;;;2.90;;
44816;SDS011;30529;53.570;9.964;2023-03-19T05:55:26;4.33;;;3.00;;
44816;SDS011;30529;53.570;9.964;2023-03-19T05:57:52;3.60;;;2.90;;
44816;SDS011;30529;53.570;9.964;2023-03-19T06:00:18;6.63;;;3.90;;
44816;SDS011;30529;53.570;9.964;2023-03-19T06:02:44;5.10;;;3.07;;
44816;SDS011;30529;53.570;9.964;2023-03-19T06:05:10;3.77;;;2.90;;
44816;SDS011;30529;53.570;9.964;2023-03-19T06:07:36;4.60;;;3.10;;
44816;SDS011;30529;53.570;9.964;2023-03-19T06:10:02;3.90;;;3.10;;
44816;SDS011;30529;53.570;9.964;2023-03-19T06:12:29;4.40;;;3.20;;
44816;SDS011;30529;53.570;9.964;2023-03-19T06:14:55;3.80;;;3.03;;
44816;SDS011;30529;53.570;9.964;2023-03-19T06:17:21;5.10;;;3.40;;
44816;SDS011;30529;53.570;9.964;2023-03-19T06:19:47;4.40;;;3.10;;
44816;SDS011;30529;53.570;9.964;2023-03-19T06:22:14;6.67;;;3.77;;
44816;SDS011;30529;53.570;9.964;2023-03-19T06:24:39;4.50;;;3.47;;
44816;SDS011;30529;53.570;9.964;2023-03-19T06:27:08;5.87;;;4.10;;
44816;SDS011;30529;53.570;9.964;2023-03-19T06:29:34;4.90;;;3.60;;
44816;SDS011;30529;53.570;9.964;2023-03-19T06:31:59;3.90;;;3.50;;
44816;SDS011;30529;53.570;9.964;2023-03-19T06:34:25;5.20;;;3.77;;
44816;SDS011;30529;53.570;9.964;2023-03-19T06:36:51;8.10;;;4.73;;
44816;SDS011;30529;53.570;9.964;2023-03-19T06:39:18;5.63;;;4.07;;
44816;SDS011;30529;53.570;9.964;2023-03-19T06:41:44;4.97;;;3.97;;
44816;SDS011;30529;53.570;9.964;2023-03-19T06:44:10;5.37;;;3.30;;
44816;SDS011;30529;53.570;9.964;2023-03-19T06:46:36;4.77;;;3.37;;
44816;SDS011;30529;53.570;9.964;2023-03-19T06:49:02;7.60;;;3.70;;
44816;SDS011;30529;53.570;9.964;2023-03-19T06:51:28;5.37;;;3.80;;
44816;SDS011;30529;53.570;9.964;2023-03-19T06:53:54;6.00;;;3.77;;
44816;SDS011;30529;53.570;9.964;2023-03-19T06:56:21;4.97;;;3.50;;
44816;SDS011;30529;53.570;9.964;2023-03-19T06:58:47;5.73;;;4.00;;
44816;SDS011;30529;53.570;9.964;2023-03-19T07:01:13;5.30;;;4.13;;
44816;SDS011;30529;53.570;9.964;2023-03-19T07:03:38;8.77;;;4.27;;
44816;SDS011;30529;53.570;9.964;2023-03-19T07:06:04;6.37;;;4.23;;
44816;SDS011;30529;53.570;9.964;2023-03-19T07:08:31;4.70;;;3.67;;
44816;SDS011;30529;53.570;9.964;2023-03-19T07:11:05;5.63;;;3.90;;
44816;SDS011;30529;53.570;9.964;2023-03-19T07:13:32;6.47;;;4.00;;
44816;SDS011;30529;53.570;9.964;2023-03-19T07:15:58;5.47;;;3.80;;
44816;SDS011;30529;53.570;9.964;2023-03-19T07:18:24;6.53;;;4.37;;
44816;SDS011;30529;53.570;9.964;2023-03-19T07:20:51;5.20;;;3.87;;
44816;SDS011;30529;53.570;9.964;2023-03-19T07:23:17;8.00;;;4.03;;
44816;SDS011;30529;53.570;9.964;2023-03-19T07:25:43;6.57;;;4.70;;
44816;SDS011;30529;53.570;9.964;2023-03-19T07:28:09;5.53;;;3.70;;
44816;SDS011;30529;53.570;9.964;2023-03-19T07:30:35;5.20;;;4.00;;
44816;SDS011;30529;53.570;9.964;2023-03-19T07:33:03;8.40;;;5.53;;
44816;SDS011;30529;53.570;9.964;2023-03-19T07:35:30;6.20;;;4.70;;
44816;SDS011;30529;53.570;9.964;2023-03-19T07:37:56;5.93;;;3.97;;
44816;SDS011;30529;53.570;9.964;2023-03-19T07:40:24;6.10;;;4.70;;
44816;SDS011;30529;53.570;9.964;2023-03-19T07:42:51;9.90;;;4.97;;
44816;SDS011;30529;53.570;9.964;2023-03-19T07:45:17;6.73;;;4.50;;
44816;SDS011;30529;53.570;9.964;2023-03-19T07:47:43;4.93;;;4.10;;
44816;SDS011;30529;53.570;9.964;2023-03-19T07:50:10;6.40;;;4.30;;
44816;SDS011;30529;53.570;9.964;2023-03-19T07:52:36;7.17;;;5.07;;
44816;SDS011;30529;53.570;9.964;2023-03-19T07:55:02;7.13;;;4.50;;
44816;SDS011;30529;53.570;9.964;2023-03-19T07:57:28;7.30;;;4.50;;
44816;SDS011;30529;53.570;9.964;2023-03-19T07:59:54;6.73;;;4.80;;
44816;SDS011;30529;53.570;9.964;2023-03-19T08:02:20;11.27;;;5.03;;
44816;SDS011;30529;53.570;9.964;2023-03-19T08:04:46;7.40;;;4.40;;
44816;SDS011;30529;53.570;9.964;2023-03-19T08:07:12;6.70;;;4.50;;
44816;SDS011;30529;53.570;9.964;2023-03-19T08:09:38;5.53;;;4.43;;
44816;SDS011;30529;53.570;9.964;2023-03-19T08:12:05;9.00;;;5.37;;
44816;SDS011;30529;53.570;9.964;2023-03-19T08:14:32;5.70;;;4.23;;
44816;SDS011;30529;53.570;9.964;2023-03-19T08:16:58;7.00;;;4.80;;
44816;SDS011;30529;53.570;9.964;2023-03-19T08:19:25;6.00;;;4.63;;
44816;SDS011;30529;53.570;9.964;2023-03-19T08:21:51;6.80;;;4.57;;
44816;SDS011;30529;53.570;9.964;2023-03-19T08:24:17;7.17;;;5.23;;
44816;SDS011;30529;53.570;9.964;2023-03-19T08:26:44;9.17;;;5.00;;
44816;SDS011;30529;53.570;9.964;2023-03-19T08:29:10;7.03;;;4.87;;
44816;SDS011;30529;53.570;9.964;2023-03-19T08:31:36;7.60;;;5.00;;
44816;SDS011;30529;53.570;9.964;2023-03-19T08:34:02;6.87;;;5.13;;
44816;SDS011;30529;53.570;9.964;2023-03-19T08:36:29;8.07;;;5.33;;
44816;SDS011;30529;53.570;9.964;2023-03-19T08:38:55;7.50;;;5.83;;
44816;SDS011;30529;53.570;9.964;2023-03-19T08:41:23;9.27;;;5.23;;
44816;SDS011;30529;53.570;9.964;2023-03-19T08:43:49;9.27;;;5.97;;
44816;SDS011;30529;53.570;9.964;2023-03-19T08:46:15;7.43;;;5.20;;
44816;SDS011;30529;53.570;9.964;2023-03-19T08:48:41;11.60;;;5.83;;
44816;SDS011;30529;53.570;9.964;2023-03-19T08:51:08;7.03;;;4.83;;
44816;SDS011;30529;53.570;9.964;2023-03-19T08:53:34;9.17;;;5.03;;
44816;SDS011;30529;53.570;9.964;2023-03-19T08:56:02;6.80;;;4.90;;
44816;SDS011;30529;53.570;9.964;2023-03-19T08:58:29;6.27;;;4.23;;
44816;SDS011;30529;53.570;9.964;2023-03-19T09:01:02;5.77;;;4.10;;
44816;SDS011;30529;53.570;9.964;2023-03-19T09:03:30;7.23;;;4.47;;
44816;SDS011;30529;53.570;9.964;2023-03-19T09:05:57;5.90;;;3.80;;
44816;SDS011;30529;53.570;9.964;2023-03-19T09:08:24;6.57;;;4.43;;
44816;SDS011;30529;53.570;9.964;2023-03-19T09:10:51;9.53;;;3.53;;
44816;SDS011;30529;53.570;9.964;2023-03-19T09:13:17;5.83;;;4.07;;
44816;SDS011;30529;53.570;9.964;2023-03-19T09:15:43;5.23;;;3.53;;
44816;SDS011;30529;53.570;9.964;2023-03-19T09:18:09;4.43;;;3.50;;
44816;SDS011;30529;53.570;9.964;2023-03-19T09:20:35;4.87;;;3.10;;
44816;SDS011;30529;53.570;9.964;2023-03-19T09:23:01;10.70;;;4.33;;
44816;SDS011;30529;53.570;9.964;2023-03-19T09:25:27;6.00;;;3.50;;
44816;SDS011;30529;53.570;9.964;2023-03-19T09:27:53;6.70;;;3.20;;
44816;SDS011;30529;53.570;9.964;2023-03-19T09:30:19;9.23;;;3.90;;
44816;SDS011;30529;53.570;9.964;2023-03-19T09:32:46;4.03;;;2.70;;
44816;SDS011;30529;53.570;9.964;2023-03-19T09:35:12;6.43;;;2.83;;
44816;SDS011;30529;53.570;9.964;2023-03-19T09:37:38;4.27;;;2.53;;
44816;SDS011;30529;53.570;9.964;2023-03-19T09:40:04;4.10;;;2.57;;
44816;SDS011;30529;53.570;9.964;2023-03-19T09:45:16;6.77;;;3.30;;
44816;SDS011;30529;53.570;9.964;2023-03-19T09:47:44;6.63;;;3.30;;
44816;SDS011;30529;53.570;9.964;2023-03-19T09:50:15;5.23;;;3.37;;
44816;SDS011;30529;53.570;9.964;2023-03-19T09:52:55;5.63;;;3.30;;
44816;SDS011;30529;53.570;9.964;2023-03-19T09:55:41;8.23;;;3.30;;
44816;SDS011;30529;53.570;9.964;2023-03-19T09:58:14;5.97;;;3.13;;
44816;SDS011;30529;53.570;9.964;2023-03-19T10:00:43;4.27;;;2.70;;
44816;SDS011;30529;53.570;9.964;2023-03-19T10:03:26;3.87;;;2.67;;
44816;SDS011;30529;53.570;9.964;2023-03-19T10:08:37;3.70;;;2.40;;
44816;SDS011;30529;53.570;9.964;2023-03-19T10:11:23;4.53;;;2.23;;
44816;SDS011;30529;53.570;9.964;2023-03-19T10:14:05;5.00;;;2.53;;
44816;SDS011;30529;53.570;9.964;2023-03-19T10:16:53;4.97;;;2.40;;
44816;SDS011;30529;53.570;9.964;2023-03-19T10:19:46;4.63;;;2.73;;
44816;SDS011;30529;53.570;9.964;2023-03-19T10:22:13;3.70;;;2.40;;
44816;SDS011;30529;53.570;9.964;2023-03-19T10:24:44;5.53;;;2.57;;
44816;SDS011;30529;53.570;9.964;2023-03-19T10:27:13;5.80;;;2.90;;
44816;SDS011;30529;53.570;9.964;2023-03-19T10:29:41;3.93;;;2.50;;
44816;SDS011;30529;53.570;9.964;2023-03-19T10:34:53;6.50;;;2.57;;
44816;SDS011;30529;53.570;9.964;2023-03-19T10:37:25;4.33;;;2.83;;
44816;SDS011;30529;53.570;9.964;2023-03-19T10:39:57;3.83;;;2.80;;
44816;SDS011;30529;53.570;9.964;2023-03-19T10:47:56;3.03;;;1.70;;
44816;SDS011;30529;53.570;9.964;2023-03-19T10:55:31;4.17;;;2.17;;
44816;SDS011;30529;53.570;9.964;2023-03-19T10:58:02;3.93;;;2.50;;
44816;SDS011;30529;53.570;9.964;2023-03-19T11:00:29;5.00;;;2.80;;
44816;SDS011;30529;53.570;9.964;2023-03-19T11:02:57;4.23;;;2.67;;
44816;SDS011;30529;53.570;9.964;2023-03-19T11:05:25;3.13;;;2.40;;
44816;SDS011;30529;53.570;9.964;2023-03-19T11:08:05;3.87;;;2.70;;
44816;SDS011;30529;53.570;9.964;2023-03-19T11:10:47;3.60;;;2.33;;
44816;SDS011;30529;53.570;9.964;2023-03-19T11:15:51;3.47;;;2.37;;
44816;SDS011;30529;53.570;9.964;2023-03-19T11:18:18;5.37;;;2.83;;
44816;SDS011;30529;53.570;9.964;2023-03-19T11:20:57;5.07;;;2.67;;
44816;SDS011;30529;53.570;9.964;2023-03-19T11:23:36;5.63;;;2.70;;
44816;SDS011;30529;53.570;9.964;2023-03-19T11:26:04;3.97;;;2.60;;
44816;SDS011;30529;53.570;9.964;2023-03-19T11:28:31;6.10;;;2.83;;
44816;SDS011;30529;53.570;9.964;2023-03-19T11:31:19;4.80;;;2.80;;
44816;SDS011;30529;53.570;9.964;2023-03-19T11:34:07;4.03;;;2.67;;
44816;SDS011;30529;53.570;9.964;2023-03-19T11:37:04;7.53;;;2.80;;
44816;SDS011;30529;53.570;9.964;2023-03-19T11:43:24;6.03;;;3.10;;
44816;SDS011;30529;53.570;9.964;2023-03-19T11:45:40;4.30;;;2.80;;
44816;SDS011;30529;53.570;9.964;2023-03-19T11:48:27;3.03;;;2.47;;
44816;SDS011;30529;53.570;9.964;2023-03-19T11:51:27;6.60;;;3.00;;
44816;SDS011;30529;53.570;9.964;2023-03-19T11:54:22;5.53;;;3.00;;
44816;SDS011;30529;53.570;9.964;2023-03-19T11:57:01;5.53;;;2.87;;
44816;SDS011;30529;53.570;9.964;2023-03-19T11:59:38;4.27;;;2.73;;
44816;SDS011;30529;53.570;9.964;2023-03-19T12:02:16;7.13;;;2.33;;
44816;SDS011;30529;53.570;9.964;2023-03-19T12:08:17;8.00;;;2.90;;
44816;SDS011;30529;53.570;9.964;2023-03-19T12:17:09;5.00;;;3.17;;
44816;SDS011;30529;53.570;9.964;2023-03-19T12:23:08;5.40;;;3.53;;
44816;SDS011;30529;53.570;9.964;2023-03-19T12:31:41;5.77;;;3.43;;
44816;SDS011;30529;53.570;9.964;2023-03-19T12:34:27;4.30;;;3.20;;
44816;SDS011;30529;53.570;9.964;2023-03-19T12:40:03;4.17;;;3.20;;
44816;SDS011;30529;53.570;9.964;2023-03-19T12:42:37;5.17;;;3.50;;
44816;SDS011;30529;53.570;9.964;2023-03-19T12:45:11;4.93;;;2.90;;
44816;SDS011;30529;53.570;9.964;2023-03-19T12:47:48;6.40;;;2.30;;
44816;SDS011;30529;53.570;9.964;2023-03-19T12:50:21;4.17;;;2.53;;
44816;SDS011;30529;53.570;9.964;2023-03-19T12:52:50;3.40;;;2.30;;
44816;SDS011;30529;53.570;9.964;2023-03-19T12:55:21;4.70;;;2.27;;
44816;SDS011;30529;53.570;9.964;2023-03-19T13:06:18;2.60;;;1.90;;
44816;SDS011;30529;53.570;9.964;2023-03-19T13:22:58;5.20;;;2.20;;
44816;SDS011;30529;53.570;9.964;2023-03-19T13:25:30;5.80;;;2.27;;
44816;SDS011;30529;53.570;9.964;2023-03-19T13:28:01;4.40;;;2.43;;
44816;SDS011;30529;53.570;9.964;2023-03-19T13:30:34;6.07;;;2.53;;
44816;SDS011;30529;53.570;9.964;2023-03-19T13:33:04;3.50;;;2.03;;
44816;SDS011;30529;53.570;9.964;2023-03-19T13:38:16;3.93;;;2.17;;
44816;SDS011;30529;53.570;9.964;2023-03-19T13:44:17;4.53;;;2.33;;
44816;SDS011;30529;53.570;9.964;2023-03-19T13:55:26;7.00;;;2.50;;
44816;SDS011;30529;53.570;9.964;2023-03-19T13:57:58;5.27;;;2.77;;
44816;SDS011;30529;53.570;9.964;2023-03-19T14:01:01;5.33;;;2.83;;
44816;SDS011;30529;53.570;9.964;2023-03-19T14:03:32;4.63;;;2.83;;
44816;SDS011;30529;53.570;9.964;2023-03-19T14:06:00;5.90;;;3.20;;
44816;SDS011;30529;53.570;9.964;2023-03-19T14:08:48;8.67;;;3.93;;
44816;SDS011;30529;53.570;9.964;2023-03-19T14:11:21;5.43;;;3.33;;
44816;SDS011;30529;53.570;9.964;2023-03-19T14:13:48;7.00;;;3.80;;
44816;SDS011;30529;53.570;9.964;2023-03-19T14:16:21;7.07;;;3.40;;
44816;SDS011;30529;53.570;9.964;2023-03-19T14:18:55;6.00;;;2.63;;
44816;SDS011;30529;53.570;9.964;2023-03-19T14:21:32;4.90;;;2.80;;
44816;SDS011;30529;53.570;9.964;2023-03-19T14:27:01;5.83;;;3.10;;
44816;SDS011;30529;53.570;9.964;2023-03-19T14:29:36;5.50;;;3.27;;
44816;SDS011;30529;53.570;9.964;2023-03-19T14:32:08;7.03;;;3.13;;
44816;SDS011;30529;53.570;9.964;2023-03-19T14:34:41;6.17;;;3.70;;
44816;SDS011;30529;53.570;9.964;2023-03-19T14:37:54;8.20;;;3.70;;
44816;SDS011;30529;53.570;9.964;2023-03-19T14:40:31;6.63;;;3.57;;
44816;SDS011;30529;53.570;9.964;2023-03-19T14:43:48;5.93;;;3.27;;
44816;SDS011;30529;53.570;9.964;2023-03-19T14:46:30;5.93;;;3.37;;
44816;SDS011;30529;53.570;9.964;2023-03-19T14:54:41;7.30;;;3.90;;
44816;SDS011;30529;53.570;9.964;2023-03-19T14:57:16;5.57;;;3.67;;
44816;SDS011;30529;53.570;9.964;2023-03-19T14:59:44;6.67;;;4.30;;
44816;SDS011;30529;53.570;9.964;2023-03-19T15:02:22;5.70;;;3.80;;
44816;SDS011;30529;53.570;9.964;2023-03-19T15:05:01;5.37;;;3.77;;
44816;SDS011;30529;53.570;9.964;2023-03-19T15:07:37;5.80;;;4.13;;
44816;SDS011;30529;53.570;9.964;2023-03-19T15:10:11;5.63;;;4.17;;
44816;SDS011;30529;53.570;9.964;2023-03-19T15:13:02;5.97;;;4.03;;
44816;SDS011;30529;53.570;9.964;2023-03-19T15:16:08;6.20;;;4.70;;
44816;SDS011;30529;53.570;9.964;2023-03-19T15:18:57;6.77;;;4.70;;
44816;SDS011;30529;53.570;9.964;2023-03-19T15:21:23;9.37;;;5.50;;
44816;SDS011;30529;53.570;9.964;2023-03-19T15:23:49;8.27;;;6.20;;
44816;SDS011;30529;53.570;9.964;2023-03-19T15:26:15;10.97;;;6.53;;
44816;SDS011;30529;53.570;9.964;2023-03-19T15:28:54;8.57;;;6.13;;
44816;SDS011;30529;53.570;9.964;2023-03-19T15:31:22;6.30;;;5.03;;
44816;SDS011;30529;53.570;9.964;2023-03-19T15:33:49;10.17;;;6.73;;
44816;SDS011;30529;53.570;9.964;2023-03-19T15:36:21;8.80;;;6.53;;
44816;SDS011;30529;53.570;9.964;2023-03-19T15:38:56;9.47;;;7.27;;
44816;SDS011;30529;53.570;9.964;2023-03-19T15:41:24;9.10;;;7.23;;
44816;SDS011;30529;53.570;9.964;2023-03-19T15:43:52;10.53;;;7.63;;
44816;SDS011;30529;53.570;9.964;2023-03-19T15:46:20;9.07;;;7.67;;
44816;SDS011;30529;53.570;9.964;2023-03-19T15:48:51;8.90;;;7.10;;
44816;SDS011;30529;53.570;9.964;2023-03-19T15:51:25;10.67;;;8.53;;
44816;SDS011;30529;53.570;9.964;2023-03-19T15:53:51;11.30;;;8.13;;
44816;SDS011;30529;53.570;9.964;2023-03-19T15:56:18;11.93;;;8.57;;
44816;SDS011;30529;53.570;9.964;2023-03-19T15:58:45;10.17;;;8.20;;
44816;SDS011;30529;53.570;9.964;2023-03-19T16:01:15;10.30;;;8.43;;
44816;SDS011;30529;53.570;9.964;2023-03-19T16:03:43;10.53;;;8.97;;
44816;SDS011;30529;53.570;9.964;2023-03-19T16:06:30;12.17;;;9.10;;
44816;SDS011;30529;53.570;9.964;2023-03-19T16:09:13;10.87;;;8.80;;
44816;SDS011;30529;53.570;9.964;2023-03-19T16:11:44;11.63;;;8.47;;
44816;SDS011;30529;53.570;9.964;2023-03-19T16:14:18;13.20;;;8.83;;
44816;SDS011;30529;53.570;9.964;2023-03-19T16:17:32;11.07;;;9.07;;
44816;SDS011;30529;53.570;9.964;2023-03-19T16:20:02;11.23;;;10.10;;
44816;SDS011;30529;53.570;9.964;2023-03-19T16:22:29;14.50;;;9.47;;
44816;SDS011;30529;53.570;9.964;2023-03-19T16:24:57;11.00;;;8.73;;
44816;SDS011;30529;53.570;9.964;2023-03-19T16:27:33;13.40;;;9.27;;
44816;SDS011;30529;53.570;9.964;2023-03-19T16:30:14;12.53;;;9.93;;
44816;SDS011;30529;53.570;9.964;2023-03-19T16:32:45;13.73;;;9.47;;
44816;SDS011;30529;53.570;9.964;2023-03-19T16:35:28;10.00;;;8.47;;
44816;SDS011;30529;53.570;9.964;2023-03-19T16:40:49;14.80;;;9.23;;